Time;durP1;ratioP1;P1;durP2;ratioP2;P2;SDS_P1;SDS_P2;PMS_P1;PMS_P2;Temp;Humidity;BMP_temperature;BMP_pressure;BME280_temperature;BME280_humidity;BME280_pressure;Samples;Min_cycle;Max_cycle;Signal;HPM_P1;HPM_P2
2023/12/05 00:01:32;;;;;;;14.57;7.45;;;1.80;99.90;;;;;;6288252;22;20038;-84
2023/12/05 00:04:20;;;;;;;10.52;6.97;;;1.90;99.90;;;;;;6275542;22;20071;-86
2023/12/05 00:07:07;;;;;;;10.13;6.78;;;2.00;99.90;;;;;;6274279;22;20409;-79
2023/12/05 00:09:58;;;;;;;10.40;6.82;;;2.00;99.90;;;;;;6277712;22;20077;-84
2023/12/05 00:12:45;;;;;;;11.32;6.78;;;2.00;99.90;;;;;;6275069;22;20031;-85
2023/12/05 00:15:33;;;;;;;12.65;6.90;;;1.90;99.90;;;;;;6279076;22;20448;-82
2023/12/05 00:18:23;;;;;;;9.35;6.20;;;2.00;99.90;;;;;;6277607;22;20028;-85
2023/12/05 00:21:13;;;;;;;8.40;5.85;;;2.00;99.90;;;;;;6274159;22;20042;-86
2023/12/05 00:24:03;;;;;;;8.93;6.07;;;2.00;99.90;;;;;;6272064;22;20052;-86
2023/12/05 00:26:50;;;;;;;7.88;6.25;;;2.10;99.90;;;;;;6276957;22;20101;-87
2023/12/05 00:29:37;;;;;;;8.05;6.20;;;2.10;99.90;;;;;;6278550;22;20024;-89
2023/12/05 00:32:31;;;;;;;8.13;6.00;;;2.20;99.90;;;;;;6293377;22;20045;-87
2023/12/05 00:35:19;;;;;;;8.27;5.72;;;2.20;99.90;;;;;;6278543;22;20474;-87
2023/12/05 00:38:07;;;;;;;9.10;5.85;;;2.20;99.90;;;;;;6276078;22;20426;-86
2023/12/05 00:40:58;;;;;;;6.88;5.03;;;2.10;99.90;;;;;;6279692;22;20437;-88
2023/12/05 00:43:46;;;;;;;8.27;5.40;;;2.10;99.90;;;;;;6274928;22;20027;-88
2023/12/05 00:46:33;;;;;;;8.95;5.57;;;2.20;99.90;;;;;;6277215;22;20472;-87
2023/12/05 00:49:23;;;;;;;7.75;5.68;;;2.20;99.90;;;;;;6278937;22;20034;-86
2023/12/05 00:52:14;;;;;;;8.52;5.53;;;2.20;99.90;;;;;;6275929;22;20042;-81
2023/12/05 00:55:01;;;;;;;10.13;5.75;;;2.20;99.90;;;;;;6279052;22;20028;-87
2023/12/05 00:57:48;;;;;;;7.93;5.80;;;2.20;99.90;;;;;;6277829;22;20069;-87
2023/12/05 01:00:35;;;;;;;8.52;6.65;;;2.20;99.90;;;;;;6274629;22;20111;-84
2023/12/05 01:03:27;;;;;;;8.75;5.82;;;2.30;99.90;;;;;;6277988;22;20023;-80
2023/12/05 01:06:17;;;;;;;8.60;6.55;;;2.20;99.90;;;;;;6277335;22;20363;-88
2023/12/05 01:09:10;;;;;;;7.78;6.20;;;2.30;99.90;;;;;;6280113;22;20020;-88
2023/12/05 01:12:00;;;;;;;12.15;6.13;;;2.30;99.90;;;;;;6278491;22;20020;-88
2023/12/05 01:14:47;;;;;;;9.00;6.60;;;2.30;99.90;;;;;;6276735;22;20077;-86
2023/12/05 01:17:35;;;;;;;9.18;6.60;;;2.30;99.90;;;;;;6276972;22;20035;-88
2023/12/05 01:20:22;;;;;;;10.70;7.30;;;2.30;99.90;;;;;;6277235;22;20092;-88
2023/12/05 01:23:09;;;;;;;9.52;6.20;;;2.40;99.90;;;;;;6274153;22;20024;-88
2023/12/05 01:25:57;;;;;;;10.38;7.22;;;2.40;99.90;;;;;;6277337;22;20030;-88
2023/12/05 01:28:44;;;;;;;10.35;7.18;;;2.40;99.90;;;;;;6274523;22;20116;-87
2023/12/05 01:31:31;;;;;;;11.30;6.90;;;2.30;99.90;;;;;;6273674;22;20024;-88
2023/12/05 01:34:18;;;;;;;11.45;7.68;;;2.30;99.90;;;;;;6277581;22;20395;-88
2023/12/05 01:37:08;;;;;;;10.80;8.35;;;2.20;99.90;;;;;;6277658;22;20643;-87
2023/12/05 01:39:55;;;;;;;13.18;8.75;;;2.20;99.90;;;;;;6272467;22;20024;-83
2023/12/05 01:42:43;;;;;;;12.60;8.80;;;2.20;99.90;;;;;;6276240;22;20028;-85
2023/12/05 01:45:30;;;;;;;12.35;8.43;;;2.20;99.90;;;;;;6278064;22;20023;-86
2023/12/05 01:48:19;;;;;;;12.98;9.98;;;2.20;99.90;;;;;;6276164;22;20102;-86
2023/12/05 01:51:11;;;;;;;13.15;9.18;;;2.20;99.90;;;;;;6275059;22;20051;-87
2023/12/05 01:54:03;;;;;;;15.23;9.65;;;2.20;99.90;;;;;;6276398;22;20052;-86
2023/12/05 01:56:50;;;;;;;13.68;9.88;;;2.20;99.90;;;;;;6276607;22;20065;-85
2023/12/05 01:59:37;;;;;;;14.70;9.57;;;2.20;99.90;;;;;;6277951;22;20135;-88
2023/12/05 02:02:25;;;;;;;15.32;10.10;;;2.10;99.90;;;;;;6274914;22;20032;-85
2023/12/05 02:05:14;;;;;;;13.80;9.68;;;2.10;99.90;;;;;;6279373;22;20019;-86
2023/12/05 02:08:02;;;;;;;16.85;9.88;;;2.10;99.90;;;;;;6279967;22;20027;-81
2023/12/05 02:10:49;;;;;;;15.55;9.38;;;2.00;99.90;;;;;;6256870;22;20051;-84
2023/12/05 02:13:38;;;;;;;15.50;10.70;;;2.10;99.90;;;;;;6276731;22;20058;-85
2023/12/05 02:16:34;;;;;;;14.05;9.38;;;2.10;99.90;;;;;;6276036;22;20020;-84
2023/12/05 02:19:42;;;;;;;19.40;9.93;;;2.10;99.90;;;;;;6274652;22;20055;-83
2023/12/05 02:23:00;;;;;;;13.90;10.00;;;2.10;99.90;;;;;;6275353;22;20034;-85
2023/12/05 02:26:20;;;;;;;11.98;8.88;;;2.20;99.90;;;;;;6274491;22;20019;-85
2023/12/05 02:29:07;;;;;;;11.82;7.85;;;2.30;99.90;;;;;;6275514;22;20035;-85
2023/12/05 02:31:59;;;;;;;10.27;6.72;;;2.50;99.90;;;;;;6280173;22;20035;-85
2023/12/05 02:34:47;;;;;;;9.95;7.28;;;2.50;99.90;;;;;;6278001;22;20079;-85
2023/12/05 02:37:54;;;;;;;10.68;7.50;;;2.50;99.90;;;;;;6276829;22;20057;-85
2023/12/05 02:40:52;;;;;;;10.20;7.20;;;2.70;99.90;;;;;;6272702;22;20051;-84
2023/12/05 02:44:04;;;;;;;13.23;7.35;;;2.60;99.90;;;;;;6273191;22;20024;-84
2023/12/05 02:46:51;;;;;;;10.95;7.75;;;2.70;99.90;;;;;;6258549;22;20023;-83
2023/12/05 02:49:41;;;;;;;10.38;7.50;;;2.60;99.90;;;;;;6251145;22;20110;-87
2023/12/05 02:52:31;;;;;;;11.60;8.30;;;2.50;99.90;;;;;;6275817;22;20468;-82
2023/12/05 02:55:20;;;;;;;10.52;7.32;;;2.50;99.90;;;;;;6261919;22;20023;-84
2023/12/05 02:58:09;;;;;;;11.85;7.60;;;2.50;99.90;;;;;;6261936;22;20019;-79
2023/12/05 03:00:57;;;;;;;13.13;7.40;;;2.60;99.90;;;;;;6280064;22;20291;-84
2023/12/05 03:03:44;;;;;;;13.48;8.65;;;2.50;99.90;;;;;;6274858;22;20107;-84
2023/12/05 03:06:34;;;;;;;12.95;8.88;;;2.50;99.90;;;;;;6275409;22;20542;-84
2023/12/05 03:09:24;;;;;;;12.13;9.15;;;2.40;99.90;;;;;;6276949;22;20034;-84
2023/12/05 03:12:11;;;;;;;15.13;8.98;;;2.40;99.90;;;;;;6277185;22;20073;-83
2023/12/05 03:15:01;;;;;;;15.13;10.05;;;2.30;99.90;;;;;;6271817;22;20471;-83
2023/12/05 03:17:49;;;;;;;15.45;10.85;;;2.30;99.90;;;;;;6253851;22;20472;-84
2023/12/05 03:20:39;;;;;;;16.23;9.52;;;2.30;99.90;;;;;;6275971;22;20027;-82
2023/12/05 03:23:26;;;;;;;16.60;10.13;;;2.30;99.90;;;;;;6275528;22;20035;-82
2023/12/05 03:26:21;;;;;;;16.10;10.00;;;2.30;99.90;;;;;;6252609;22;20019;-83
2023/12/05 03:29:10;;;;;;;16.40;9.80;;;2.30;99.90;;;;;;6253583;22;20023;-82
2023/12/05 03:31:59;;;;;;;15.43;9.57;;;2.30;99.90;;;;;;6274023;22;20042;-84
2023/12/05 03:34:48;;;;;;;13.40;9.23;;;2.30;99.90;;;;;;6272725;22;20054;-83
2023/12/05 03:37:35;;;;;;;15.60;9.63;;;2.40;99.90;;;;;;6273097;22;20031;-84
2023/12/05 03:40:22;;;;;;;12.95;8.65;;;2.50;99.90;;;;;;6249135;22;20035;-84
2023/12/05 03:43:09;;;;;;;13.63;9.25;;;2.40;99.90;;;;;;6249528;22;20141;-82
2023/12/05 03:46:00;;;;;;;13.68;9.45;;;2.40;99.90;;;;;;6272385;22;20020;-80
2023/12/05 03:48:49;;;;;;;18.35;9.38;;;2.30;99.90;;;;;;6274834;22;20023;-83
2023/12/05 03:51:37;;;;;;;13.43;8.65;;;2.40;99.90;;;;;;6274511;22;20340;-84
2023/12/05 03:54:24;;;;;;;14.32;8.27;;;2.40;99.90;;;;;;6274986;22;20028;-79
2023/12/05 03:57:11;;;;;;;14.73;9.05;;;2.50;99.90;;;;;;6273227;22;20410;-83
2023/12/05 04:00:01;;;;;;;12.32;7.53;;;2.50;99.90;;;;;;6275223;22;20043;-84
2023/12/05 04:02:51;;;;;;;13.70;7.75;;;2.60;99.90;;;;;;6272988;22;20023;-83
2023/12/05 04:05:41;;;;;;;12.68;7.80;;;2.60;99.90;;;;;;6252007;22;20067;-83
2023/12/05 04:08:30;;;;;;;11.00;7.75;;;2.60;99.90;;;;;;6275865;22;20442;-81
2023/12/05 04:11:29;;;;;;;10.07;6.95;;;2.60;99.90;;;;;;6275707;22;20028;-83
2023/12/05 04:14:17;;;;;;;12.02;7.82;;;2.60;99.90;;;;;;6253137;22;20028;-83
2023/12/05 04:17:04;;;;;;;12.80;8.38;;;2.50;99.90;;;;;;6277037;22;20027;-82
2023/12/05 04:19:52;;;;;;;18.75;8.05;;;2.60;99.90;;;;;;6253872;22;20027;-83
2023/12/05 04:22:41;;;;;;;14.00;8.57;;;2.60;99.90;;;;;;6275915;22;20023;-81
2023/12/05 04:25:31;;;;;;;12.80;8.35;;;2.50;99.90;;;;;;6251830;22;20135;-81
2023/12/05 04:28:18;;;;;;;11.93;7.70;;;2.50;99.90;;;;;;6276697;22;20035;-83
2023/12/05 04:31:11;;;;;;;13.60;8.48;;;2.50;99.90;;;;;;6276950;22;20420;-80
2023/12/05 04:33:58;;;;;;;14.40;7.90;;;2.50;99.90;;;;;;6276115;22;20298;-79
2023/12/05 04:36:46;;;;;;;11.85;7.50;;;2.50;99.90;;;;;;6276780;22;20098;-83
2023/12/05 04:39:33;;;;;;;13.20;8.27;;;2.40;99.90;;;;;;6274479;22;20089;-84
2023/12/05 04:42:20;;;;;;;12.02;7.78;;;2.40;99.90;;;;;;6259574;22;20027;-82
2023/12/05 04:45:08;;;;;;;11.35;7.65;;;2.40;99.90;;;;;;6256913;22;20102;-83
2023/12/05 04:47:57;;;;;;;22.55;7.55;;;2.50;99.90;;;;;;6280238;22;20046;-83
2023/12/05 04:50:44;;;;;;;11.80;7.35;;;2.50;99.90;;;;;;6255256;22;20024;-83
2023/12/05 04:53:32;;;;;;;11.75;6.80;;;2.60;99.90;;;;;;6276759;22;20020;-82
2023/12/05 04:56:19;;;;;;;9.85;5.78;;;2.60;99.90;;;;;;6252925;22;20027;-81
2023/12/05 04:59:08;;;;;;;9.35;6.45;;;2.60;99.90;;;;;;6253811;22;20035;-80
2023/12/05 05:01:58;;;;;;;12.48;6.50;;;2.60;99.90;;;;;;6276529;22;20306;-81
2023/12/05 05:04:47;;;;;;;9.85;6.32;;;2.60;99.90;;;;;;6278449;22;20015;-80
2023/12/05 05:07:35;;;;;;;12.07;6.78;;;2.50;99.90;;;;;;6277238;22;20024;-82
2023/12/05 05:10:22;;;;;;;11.57;6.30;;;2.50;99.90;;;;;;6254564;22;20099;-82
2023/12/05 05:13:09;;;;;;;10.52;7.03;;;2.50;99.90;;;;;;6283474;22;20034;-83
2023/12/05 05:15:57;;;;;;;11.57;7.28;;;2.60;99.90;;;;;;6289334;22;20033;-81
2023/12/05 05:18:47;;;;;;;11.10;7.55;;;2.50;99.90;;;;;;6291113;22;20079;-79
2023/12/05 05:21:35;;;;;;;11.18;7.78;;;2.50;99.90;;;;;;6279989;22;20057;-80
2023/12/05 05:24:22;;;;;;;12.02;7.28;;;2.40;99.90;;;;;;6271728;22;20386;-82
2023/12/05 05:27:13;;;;;;;11.75;7.60;;;2.40;99.90;;;;;;6285199;22;20028;-84
2023/12/05 05:30:02;;;;;;;10.45;7.13;;;2.40;99.90;;;;;;6260827;22;20024;-83
2023/12/05 05:32:52;;;;;;;14.00;7.45;;;2.40;99.90;;;;;;6256454;22;20024;-81
2023/12/05 05:35:40;;;;;;;10.77;7.00;;;2.50;99.90;;;;;;6278310;22;20027;-81
2023/12/05 05:38:30;;;;;;;9.50;6.53;;;2.50;99.90;;;;;;6280058;22;20383;-80
2023/12/05 05:41:22;;;;;;;13.95;6.57;;;2.50;99.90;;;;;;6252647;22;20051;-81
2023/12/05 05:44:11;;;;;;;14.23;7.07;;;2.40;99.90;;;;;;6275562;22;20042;-82
2023/12/05 05:46:59;;;;;;;11.07;5.75;;;2.40;99.90;;;;;;6275314;22;20102;-79
2023/12/05 05:49:47;;;;;;;9.25;6.15;;;2.30;99.90;;;;;;6253687;22;20023;-81
2023/12/05 05:52:36;;;;;;;7.72;6.05;;;2.40;99.90;;;;;;6250091;22;20027;-82
2023/12/05 05:55:24;;;;;;;10.98;5.97;;;2.30;99.90;;;;;;6253768;22;20437;-81
2023/12/05 05:58:12;;;;;;;11.30;7.20;;;2.20;99.90;;;;;;6273900;22;20405;-83
2023/12/05 06:00:59;;;;;;;9.35;5.90;;;2.20;99.90;;;;;;6275520;22;20032;-81
2023/12/05 06:03:47;;;;;;;12.23;6.72;;;2.20;99.90;;;;;;6275947;22;20027;-82
2023/12/05 06:06:34;;;;;;;11.70;5.90;;;2.10;99.90;;;;;;6277969;22;20027;-80
2023/12/05 06:09:21;;;;;;;10.10;7.07;;;2.00;99.90;;;;;;6276269;22;20039;-81
2023/12/05 06:12:12;;;;;;;10.20;6.65;;;2.00;99.90;;;;;;6277222;22;20020;-81
2023/12/05 06:15:01;;;;;;;9.63;6.28;;;2.20;99.90;;;;;;6275776;22;20031;-80
2023/12/05 06:17:55;;;;;;;12.05;7.05;;;2.20;99.90;;;;;;6250688;22;20023;-81
2023/12/05 06:20:51;;;;;;;8.98;5.20;;;2.30;99.90;;;;;;6273844;22;20110;-81
2023/12/05 06:23:39;;;;;;;;;;;2.40;99.90;;;;;;6253146;22;20072;-82
2023/12/05 06:26:26;;;;;;;6.45;4.40;;;2.40;99.90;;;;;;6274513;22;19930;-82
2023/12/05 06:29:13;;;;;;;7.68;4.15;;;2.50;99.90;;;;;;6248663;22;20142;-82
2023/12/05 06:32:00;;;;;;;8.80;3.85;;;2.60;99.90;;;;;;6275183;22;20094;-81
2023/12/05 06:34:48;;;;;;;5.25;3.80;;;2.70;99.90;;;;;;6273759;22;20033;-81
2023/12/05 06:37:36;;;;;;;7.53;3.80;;;2.70;99.90;;;;;;6253293;22;20023;-83
2023/12/05 06:40:23;;;;;;;7.57;4.22;;;2.80;99.90;;;;;;6274872;22;20047;-82
2023/12/05 06:43:11;;;;;;;6.43;4.00;;;2.80;99.90;;;;;;6273252;22;20027;-78
2023/12/05 06:45:58;;;;;;;7.70;3.72;;;2.80;99.90;;;;;;6252597;22;20019;-81
2023/12/05 06:48:46;;;;;;;6.72;4.15;;;2.80;99.90;;;;;;6273941;22;20116;-81
2023/12/05 06:51:34;;;;;;;8.18;4.28;;;2.80;99.90;;;;;;6275982;22;20095;-79
2023/12/05 06:54:21;;;;;;;4.55;3.70;;;2.70;99.90;;;;;;6276305;22;20182;-79
2023/12/05 06:57:16;;;;;;;6.18;4.00;;;2.70;99.90;;;;;;6279087;22;20389;-81
2023/12/05 07:00:05;;;;;;;7.45;3.80;;;2.70;99.90;;;;;;6251133;22;20405;-85
2023/12/05 07:02:57;;;;;;;6.60;4.10;;;2.60;99.90;;;;;;6275159;22;20344;-85
2023/12/05 07:05:44;;;;;;;6.78;3.53;;;2.70;99.90;;;;;;6276938;22;20099;-84
2023/12/05 07:08:33;;;;;;;7.50;3.50;;;2.70;99.90;;;;;;6278526;22;20046;-85
2023/12/05 07:11:41;;;;;;;8.27;3.38;;;2.70;99.90;;;;;;6255834;22;20020;-84
2023/12/05 07:14:34;;;;;;;7.95;3.00;;;2.80;99.90;;;;;;6251231;22;20128;-86
2023/12/05 07:17:25;;;;;;;6.60;3.35;;;2.80;99.90;;;;;;6234224;22;20034;-87
2023/12/05 07:20:14;;;;;;;9.90;3.78;;;2.80;99.90;;;;;;6252198;22;20134;-86
2023/12/05 07:23:01;;;;;;;7.72;4.38;;;2.70;99.90;;;;;;6253603;22;20115;-87
2023/12/05 07:25:49;;;;;;;9.43;4.20;;;2.70;99.90;;;;;;6250372;22;20042;-85
2023/12/05 07:28:36;;;;;;;9.00;4.25;;;2.80;99.90;;;;;;6274630;22;20034;-84
2023/12/05 07:31:24;;;;;;;7.57;3.28;;;2.80;95.80;;;;;;6274454;22;20024;-83
2023/12/05 07:34:13;;;;;;;16.30;3.60;;;2.80;83.70;;;;;;6275534;22;20386;-79
2023/12/05 07:37:01;;;;;;;6.88;2.90;;;2.80;64.10;;;;;;6277335;22;20024;-84
2023/12/05 07:39:48;;;;;;;9.48;3.28;;;2.90;53.00;;;;;;6274344;22;20038;-83
2023/12/05 07:42:39;;;;;;;3.67;2.80;;;2.90;40.30;;;;;;6251028;22;20055;-81
2023/12/05 07:45:28;;;;;;;4.97;2.90;;;2.90;25.80;;;;;;6252783;22;20031;-79
2023/12/05 07:48:16;;;;;;;10.52;3.05;;;2.90;7.00;;;;;;6276498;22;20023;-84
2023/12/05 07:51:04;;;;;;;3.28;2.67;;;3.00;1.00;;;;;;6275916;22;20063;-84
2023/12/05 07:53:51;;;;;;;4.15;2.67;;;3.10;1.00;;;;;;6275557;22;20027;-84
2023/12/05 07:56:41;;;;;;;10.68;3.10;;;3.30;1.00;;;;;;6271039;22;20066;-82
2023/12/05 07:59:29;;;;;;;7.70;2.95;;;3.30;1.00;;;;;;6275565;22;20031;-84
2023/12/05 08:02:20;;;;;;;5.13;2.60;;;3.40;99.90;;;;;;6274194;22;20050;-83
2023/12/05 08:05:09;;;;;;;7.87;3.30;;;3.40;99.90;;;;;;6274745;22;20027;-83
2023/12/05 08:07:56;;;;;;;5.88;2.85;;;3.50;99.90;;;;;;6273568;22;20024;-83
2023/12/05 08:10:43;;;;;;;4.53;2.45;;;3.60;99.90;;;;;;6250675;22;20023;-83
2023/12/05 08:13:31;;;;;;;4.38;2.60;;;3.70;99.90;;;;;;6273919;22;20038;-84
2023/12/05 08:16:19;;;;;;;4.70;2.20;;;3.70;99.90;;;;;;6251860;22;20039;-85
2023/12/05 08:19:07;;;;;;;5.18;2.28;;;3.60;99.90;;;;;;6278548;22;20029;-84
2023/12/05 08:21:57;;;;;;;5.18;2.20;;;3.50;99.90;;;;;;6258167;22;20302;-84
2023/12/05 08:24:44;;;;;;;4.53;2.20;;;3.50;99.90;;;;;;6264226;22;20039;-85
2023/12/05 08:27:37;;;;;;;6.43;2.28;;;3.50;99.90;;;;;;6270658;22;20026;-85
2023/12/05 08:30:25;;;;;;;5.03;2.50;;;3.50;99.90;;;;;;6293273;22;20011;-81
2023/12/05 08:33:18;;;;;;;5.70;1.95;;;3.50;99.90;;;;;;6297920;22;20023;-86
2023/12/05 08:36:08;;;;;;;7.03;2.05;;;3.50;99.90;;;;;;6261221;22;20054;-85
2023/12/05 08:38:58;;;;;;;3.97;1.60;;;3.50;99.90;;;;;;6260364;22;20020;-84
2023/12/05 08:41:45;;;;;;;6.85;2.13;;;3.60;99.90;;;;;;6283388;22;20095;-84
2023/12/05 08:44:34;;;;;;;4.18;2.17;;;3.60;99.90;;;;;;6279558;22;20034;-84
2023/12/05 08:47:21;;;;;;;6.47;1.90;;;3.60;99.90;;;;;;6251660;22;20035;-82
2023/12/05 08:50:09;;;;;;;4.03;1.95;;;3.60;99.90;;;;;;6252859;22;20107;-83
2023/12/05 08:52:56;;;;;;;6.75;2.03;;;3.90;99.90;;;;;;6255991;22;20111;-83
2023/12/05 08:55:46;;;;;;;2.92;1.80;;;4.00;99.90;;;;;;6277703;22;20102;-85
2023/12/05 08:58:37;;;;;;;7.50;2.17;;;4.30;99.90;;;;;;6273928;22;20027;-87
2023/12/05 09:01:24;;;;;;;7.25;2.50;;;4.40;99.90;;;;;;6275358;22;20031;-81
2023/12/05 09:04:14;;;;;;;4.68;1.92;;;4.50;99.90;;;;;;6275059;22;20085;-85
2023/12/05 09:07:02;;;;;;;11.38;2.25;;;4.70;99.90;;;;;;6275619;22;20058;-87
2023/12/05 09:09:49;;;;;;;8.02;2.75;;;4.90;99.90;;;;;;6258484;22;20035;-81
2023/12/05 09:12:38;;;;;;;4.65;2.00;;;5.10;99.90;;;;;;6263437;22;20075;-89
2023/12/05 09:15:28;;;;;;;4.90;2.03;;;5.00;99.90;;;;;;6285434;22;20030;-85
2023/12/05 09:18:20;;;;;;;5.88;2.10;;;4.90;99.90;;;;;;6265910;22;20027;-84
2023/12/05 09:21:09;;;;;;;3.63;2.42;;;4.70;99.90;;;;;;6275992;22;20020;-81
2023/12/05 09:26:37;;;;;;;5.53;2.17;;;4.90;99.90;;;;;;6265971;22;20111;-84
2023/12/05 09:29:24;;;;;;;5.25;2.33;;;5.10;99.90;;;;;;6276327;22;20028;-82
2023/12/05 09:32:14;;;;;;;4.45;2.40;;;5.00;99.90;;;;;;6256821;22;20024;-84
2023/12/05 09:35:09;;;;;;;6.70;2.30;;;4.90;99.90;;;;;;6243243;23;20394;-84
2023/12/05 09:37:58;;;;;;;5.30;2.00;;;5.00;99.90;;;;;;6244101;22;20076;-84
2023/12/05 09:40:46;;;;;;;4.05;2.22;;;5.10;99.90;;;;;;6243346;23;20496;-86
2023/12/05 09:43:51;;;;;;;4.72;2.30;;;5.30;99.90;;;;;;6243508;23;20035;-83
2023/12/05 09:46:43;;;;;;;2.47;2.00;;;5.50;99.90;;;;;;6244084;22;20027;-84
2023/12/05 09:49:35;;;;;;;5.25;2.28;;;5.40;99.90;;;;;;6243165;22;20024;-82
2023/12/05 09:52:27;;;;;;;4.82;2.20;;;5.70;99.90;;;;;;6242760;22;20030;-86
2023/12/05 09:55:19;;;;;;;3.53;1.90;;;6.30;99.90;;;;;;6243715;23;20032;-84
2023/12/05 09:58:12;;;;;;;4.07;2.40;;;6.70;99.90;;;;;;6243923;23;20115;-84
2023/12/05 10:01:01;;;;;;;3.90;2.25;;;6.50;99.90;;;;;;6245497;22;20081;-82
2023/12/05 10:03:54;;;;;;;4.03;2.20;;;6.50;99.90;;;;;;6245064;23;20175;-84
2023/12/05 10:06:45;;;;;;;6.22;2.00;;;6.00;99.90;;;;;;6245564;23;20063;-83
2023/12/05 10:09:35;;;;;;;5.03;1.70;;;5.50;99.90;;;;;;6242901;22;20024;-85
2023/12/05 10:12:28;;;;;;;5.35;1.90;;;5.50;99.90;;;;;;6245256;23;20029;-82
2023/12/05 10:15:19;;;;;;;5.63;2.10;;;6.80;99.90;;;;;;6244064;23;20467;-84
2023/12/05 10:18:08;;;;;;;3.42;1.63;;;7.30;99.90;;;;;;6246771;22;20032;-88
2023/12/05 10:20:55;;;;;;;3.70;1.63;;;7.60;99.90;;;;;;6246332;22;20067;-86
2023/12/05 10:23:46;;;;;;;4.72;1.77;;;8.00;99.90;;;;;;6244023;23;20044;-85
2023/12/05 10:26:47;;;;;;;4.80;1.70;;;7.90;99.90;;;;;;6239692;23;20103;-88
2023/12/05 10:29:41;;;;;;;1.92;1.48;;;7.40;99.90;;;;;;6243904;23;20390;-85
2023/12/05 10:32:28;;;;;;;5.47;1.70;;;6.70;99.90;;;;;;6244065;23;20024;-86
2023/12/05 10:35:27;;;;;;;3.90;1.80;;;7.40;99.90;;;;;;6244654;22;20113;-86
2023/12/05 10:38:17;;;;;;;2.83;1.63;;;7.90;99.90;;;;;;6244073;23;20024;-87
2023/12/05 10:41:05;;;;;;;4.72;1.55;;;7.60;99.90;;;;;;6243484;23;20028;-87
2023/12/05 10:43:55;;;;;;;2.83;1.60;;;8.10;99.90;;;;;;6243584;23;20031;-86
2023/12/05 10:46:48;;;;;;;3.17;1.65;;;8.30;99.90;;;;;;6243849;22;20272;-88
2023/12/05 10:49:37;;;;;;;4.45;1.50;;;8.30;99.90;;;;;;6242239;23;20043;-85
2023/12/05 10:52:24;;;;;;;2.88;1.20;;;8.30;99.90;;;;;;6239908;23;20099;-86
2023/12/05 10:55:14;;;;;;;2.67;1.73;;;8.70;99.90;;;;;;6243224;23;20059;-84
2023/12/05 10:58:02;;;;;;;2.67;1.45;;;8.50;99.90;;;;;;6243350;23;20030;-83
2023/12/05 11:00:50;;;;;;;2.38;1.33;;;9.20;99.90;;;;;;6245668;23;20284;-85
2023/12/05 11:03:42;;;;;;;1.95;1.30;;;8.80;99.90;;;;;;6245911;22;20028;-84
2023/12/05 11:06:32;;;;;;;3.20;1.70;;;8.70;99.90;;;;;;6244530;23;20092;-83
2023/12/05 11:09:22;;;;;;;2.55;1.52;;;8.60;99.90;;;;;;6241623;23;20069;-82
2023/12/05 11:12:10;;;;;;;5.05;1.98;;;8.60;99.90;;;;;;6245381;23;20032;-87
2023/12/05 11:15:00;;;;;;;3.65;1.70;;;8.70;99.90;;;;;;6243492;23;20024;-84
2023/12/05 11:18:15;;;;;;;2.13;1.50;;;8.70;99.90;;;;;;6243698;22;20154;-84
2023/12/05 11:21:21;;;;;;;2.78;1.50;;;8.50;99.90;;;;;;6246617;23;20028;-84
2023/12/05 11:24:36;;;;;;;2.05;1.27;;;8.70;99.90;;;;;;6249921;22;20079;-84
2023/12/05 11:28:05;;;;;;;6.38;1.60;;;9.00;99.90;;;;;;6254255;23;20037;-83
2023/12/05 11:31:13;;;;;;;4.75;1.70;;;9.30;99.90;;;;;;6257409;22;20028;-86
2023/12/05 11:34:30;;;;;;;3.08;1.50;;;9.60;99.90;;;;;;6246966;23;20034;-85
2023/12/05 11:37:51;;;;;;;2.90;1.40;;;9.40;99.90;;;;;;6247993;22;20036;-85
2023/12/05 11:40:44;;;;;;;2.95;1.40;;;9.50;99.90;;;;;;6245984;22;20028;-85
2023/12/05 11:43:36;;;;;;;4.32;1.77;;;9.60;99.90;;;;;;6245217;22;20024;-84
2023/12/05 11:46:24;;;;;;;2.78;1.70;;;9.90;99.90;;;;;;6244596;22;20330;-86
2023/12/05 11:49:28;;;;;;;3.70;1.67;;;9.50;99.90;;;;;;6244397;23;20020;-85
2023/12/05 11:52:18;;;;;;;2.28;1.25;;;9.80;99.90;;;;;;6246146;22;20073;-84
2023/12/05 11:55:07;;;;;;;1.98;1.30;;;10.00;99.90;;;;;;6247453;22;20020;-85
2023/12/05 11:57:54;;;;;;;1.65;1.30;;;9.80;99.90;;;;;;6245242;23;20028;-85
2023/12/05 12:00:46;;;;;;;5.55;1.88;;;9.60;99.90;;;;;;6244377;22;20031;-86
2023/12/05 12:04:16;;;;;;;3.90;1.77;;;9.80;99.90;;;;;;6242620;23;20038;-81
2023/12/05 12:07:03;;;;;;;1.92;1.50;;;9.80;99.90;;;;;;6241591;23;20123;-86
2023/12/05 12:09:51;;;;;;;4.78;1.70;;;9.30;99.90;;;;;;6245693;22;20020;-85
2023/12/05 12:12:39;;;;;;;2.50;1.50;;;8.40;99.90;;;;;;6244976;23;20317;-80
2023/12/05 12:15:35;;;;;;;1.63;1.30;;;8.60;99.90;;;;;;6247578;23;20104;-85
2023/12/05 12:18:26;;;;;;;2.97;1.30;;;9.20;99.90;;;;;;6246742;22;20028;-85
2023/12/05 12:21:32;;;;;;;4.28;1.30;;;9.60;99.90;;;;;;6243195;23;20358;-86
2023/12/05 12:24:22;;;;;;;1.92;1.27;;;10.30;99.90;;;;;;6242439;23;20453;-81
2023/12/05 12:27:12;;;;;;;3.78;1.40;;;10.00;99.90;;;;;;6244467;23;20024;-86
2023/12/05 12:30:03;;;;;;;1.23;1.10;;;9.20;99.90;;;;;;6245557;23;20076;-85
2023/12/05 12:33:04;;;;;;;1.92;1.40;;;9.40;99.90;;;;;;6244753;23;20449;-84
2023/12/05 12:35:52;;;;;;;3.92;1.35;;;9.70;99.90;;;;;;6245195;23;20035;-85
2023/12/05 12:38:42;;;;;;;2.58;1.38;;;9.50;99.90;;;;;;6245520;22;20430;-86
2023/12/05 12:41:30;;;;;;;2.40;1.50;;;9.50;99.90;;;;;;6245658;23;20418;-85
2023/12/05 12:44:18;;;;;;;2.90;1.50;;;9.90;99.90;;;;;;6245917;22;20062;-85
2023/12/05 12:47:08;;;;;;;4.63;1.50;;;9.70;99.90;;;;;;6245333;23;20027;-84
2023/12/05 12:50:00;;;;;;;2.58;1.33;;;10.40;99.90;;;;;;6224364;23;20107;-85
2023/12/05 12:52:54;;;;;;;2.72;1.27;;;10.00;99.90;;;;;;6244677;23;20059;-86
2023/12/05 12:55:42;;;;;;;2.35;1.38;;;10.00;99.90;;;;;;6246420;22;20024;-85
2023/12/05 12:58:41;;;;;;;2.53;1.60;;;10.10;99.90;;;;;;6248895;22;20020;-86
2023/12/05 13:01:38;;;;;;;3.33;1.38;;;10.40;99.90;;;;;;6247072;22;20024;-84
2023/12/05 13:04:32;;;;;;;3.35;1.70;;;10.60;99.90;;;;;;6245415;23;20058;-85
2023/12/05 13:07:25;;;;;;;3.78;1.48;;;10.00;99.90;;;;;;6247373;22;20020;-84
2023/12/05 13:10:13;;;;;;;3.33;1.60;;;8.60;99.90;;;;;;6246933;23;20025;-80
2023/12/05 13:13:02;;;;;;;5.10;2.15;;;7.80;99.90;;;;;;6250802;23;20078;-79
2023/12/05 13:15:50;;;;;;;2.55;1.90;;;7.00;99.90;;;;;;6246380;22;20024;-85
2023/12/05 13:18:45;;;;;;;2.45;1.90;;;6.50;99.90;;;;;;6247478;22;20419;-84
2023/12/05 13:21:34;;;;;;;5.22;1.48;;;6.30;99.90;;;;;;6246113;23;20024;-83
2023/12/05 13:24:22;;;;;;;4.15;1.73;;;6.00;1.00;;;;;;6244999;23;20028;-80
2023/12/05 13:27:12;;;;;;;2.92;1.85;;;5.90;1.00;;;;;;6246827;23;20090;-86
2023/12/05 13:30:02;;;;;;;9.13;2.28;;;5.70;1.00;;;;;;6245648;23;20020;-85
2023/12/05 13:32:49;;;;;;;4.78;2.15;;;5.50;1.00;;;;;;6267802;22;20077;-84
2023/12/05 13:35:37;;;;;;;4.05;1.88;;;5.40;28.10;;;;;;6274192;22;20058;-84
2023/12/05 13:38:26;;;;;;;3.50;1.90;;;5.40;89.80;;;;;;6276556;22;20030;-86
2023/12/05 13:41:13;;;;;;;4.93;2.40;;;5.40;99.90;;;;;;6276910;22;20019;-84
2023/12/05 13:44:02;;;;;;;3.35;2.20;;;5.40;99.90;;;;;;6252347;22;20371;-84
2023/12/05 13:46:49;;;;;;;2.90;2.03;;;5.40;99.90;;;;;;6256513;22;20507;-85
2023/12/05 13:49:38;;;;;;;4.93;1.80;;;5.40;99.90;;;;;;6274431;22;20046;-85
2023/12/05 13:52:25;;;;;;;4.57;2.00;;;5.30;99.90;;;;;;6251541;22;20023;-85
2023/12/05 13:55:15;;;;;;;4.10;1.75;;;5.30;99.90;;;;;;6254599;22;20426;-86
2023/12/05 13:58:03;;;;;;;4.28;2.38;;;5.30;99.90;;;;;;6277755;22;20081;-85
2023/12/05 14:00:52;;;;;;;2.65;1.77;;;5.30;99.90;;;;;;6278413;22;20058;-82
2023/12/05 14:03:42;;;;;;;2.83;1.60;;;5.30;99.90;;;;;;6256227;22;20024;-83
2023/12/05 14:06:33;;;;;;;5.10;1.60;;;5.40;99.90;;;;;;6277688;22;20035;-85
2023/12/05 14:09:20;;;;;;;5.95;2.10;;;5.40;99.90;;;;;;6276650;22;20039;-80
2023/12/05 14:12:11;;;;;;;4.78;1.90;;;5.30;99.90;;;;;;6281861;22;20019;-85
2023/12/05 14:15:00;;;;;;;3.17;1.63;;;5.40;99.90;;;;;;6253811;22;20101;-84
2023/12/05 14:17:52;;;;;;;2.58;1.58;;;5.50;87.70;;;;;;6275065;22;20043;-84
2023/12/05 14:20:41;;;;;;;8.32;2.20;;;5.60;18.10;;;;;;6251668;22;20038;-81
2023/12/05 14:23:31;;;;;;;8.63;2.10;;;5.50;1.00;;;;;;6254096;22;20050;-84
2023/12/05 14:26:22;;;;;;;6.05;1.98;;;5.40;1.00;;;;;;6276083;22;20031;-82
2023/12/05 14:29:10;;;;;;;3.47;1.75;;;5.30;1.00;;;;;;6272968;22;20054;-82
2023/12/05 14:32:00;;;;;;;5.00;1.73;;;5.30;1.00;;;;;;6274895;22;20035;-82
2023/12/05 14:34:47;;;;;;;5.93;1.67;;;5.10;1.00;;;;;;6275699;22;20397;-82
2023/12/05 14:37:35;;;;;;;3.80;1.63;;;5.10;1.00;;;;;;6256581;22;20083;-86
2023/12/05 14:40:23;;;;;;;5.18;1.45;;;5.00;1.00;;;;;;6255704;22;20049;-83
2023/12/05 14:43:10;;;;;;;6.65;1.58;;;4.90;1.00;;;;;;6277719;22;20311;-85
2023/12/05 14:45:58;;;;;;;5.40;1.70;;;4.90;1.00;;;;;;6252297;22;20350;-85
2023/12/05 14:48:46;;;;;;;6.10;1.80;;;4.80;1.00;;;;;;6279045;22;20271;-78
2023/12/05 14:51:33;;;;;;;8.50;1.90;;;4.70;1.00;;;;;;6256547;22;20019;-84
2023/12/05 14:54:21;;;;;;;8.27;1.63;;;4.70;1.00;;;;;;6254509;22;20027;-83
2023/12/05 14:57:09;;;;;;;6.20;1.80;;;4.60;1.00;;;;;;6251947;22;20083;-80